createdAt,value
2022-08-19T00:01:30.364Z,8.50
2022-08-19T00:04:00.090Z,9.05
2022-08-19T00:06:27.641Z,8.00
2022-08-19T00:08:55.206Z,8.65
2022-08-19T00:11:25.647Z,7.97
2022-08-19T00:13:53.914Z,7.75
2022-08-19T00:16:27.074Z,8.10
2022-08-19T00:18:56.139Z,8.30
2022-08-19T00:21:24.008Z,6.18
2022-08-19T00:23:51.543Z,8.30
2022-08-19T00:26:19.201Z,7.55
2022-08-19T00:28:47.131Z,7.70
2022-08-19T00:31:16.456Z,7.82
2022-08-19T00:33:45.701Z,8.00
2022-08-19T00:36:13.642Z,7.90
2022-08-19T00:38:44.218Z,7.63
2022-08-19T00:41:11.978Z,6.95
2022-08-19T00:43:41.279Z,7.40
2022-08-19T00:46:09.339Z,7.50
2022-08-19T00:48:37.415Z,7.28
2022-08-19T00:51:07.483Z,7.60
2022-08-19T00:53:35.956Z,6.93
2022-08-19T00:56:07.147Z,7.78
2022-08-19T00:58:36.086Z,7.00
2022-08-19T01:01:03.969Z,7.15
2022-08-19T01:03:57.192Z,7.03
2022-08-19T01:06:20.912Z,6.72
2022-08-19T01:08:50.211Z,7.18
2022-08-19T01:11:18.288Z,7.28
2022-08-19T01:13:49.830Z,6.85
2022-08-19T01:16:20.847Z,6.95
2022-08-19T01:18:50.015Z,6.68
2022-08-19T01:21:24.876Z,7.00
2022-08-19T01:23:53.901Z,7.32
2022-08-19T01:26:25.351Z,7.28
2022-08-19T01:28:59.573Z,7.35
2022-08-19T01:31:31.295Z,6.68
2022-08-19T01:34:01.492Z,6.85
2022-08-19T01:36:32.608Z,6.53
2022-08-19T01:39:03.431Z,6.93
2022-08-19T01:41:31.543Z,6.72
2022-08-19T01:44:03.257Z,6.75
2022-08-19T01:46:48.083Z,6.90
2022-08-19T01:49:16.260Z,6.57
2022-08-19T01:51:43.904Z,6.43
2022-08-19T01:54:23.066Z,5.75
2022-08-19T01:56:59.313Z,6.20
2022-08-19T01:59:26.978Z,6.10
2022-08-19T02:01:54.517Z,5.82
2022-08-19T02:04:22.058Z,5.93
2022-08-19T02:06:50.039Z,6.00
2022-08-19T02:09:18.939Z,5.93
2022-08-19T02:11:46.486Z,5.78
2022-08-19T02:14:14.106Z,5.95
2022-08-19T02:16:41.693Z,5.70
2022-08-19T02:19:09.530Z,5.45
2022-08-19T02:21:37.104Z,6.20
2022-08-19T02:24:05.733Z,5.65
2022-08-19T02:26:35.367Z,5.50
2022-08-19T02:29:02.901Z,5.78
2022-08-19T02:31:30.451Z,5.50
2022-08-19T02:33:58.699Z,5.50
2022-08-19T02:36:27.008Z,5.85
2022-08-19T02:38:55.559Z,5.05
2022-08-19T02:41:26.883Z,5.30
2022-08-19T02:44:26.593Z,5.25
2022-08-19T02:46:45.773Z,5.90
2022-08-19T02:49:13.865Z,5.75
2022-08-19T02:51:44.318Z,6.00
2022-08-19T02:54:14.374Z,5.80
2022-08-19T02:56:43.560Z,5.80
2022-08-19T02:59:12.581Z,6.05
2022-08-19T03:01:42.997Z,5.47
2022-08-19T03:04:13.062Z,5.70
2022-08-19T03:06:41.737Z,6.07
2022-08-19T03:09:09.831Z,6.50
2022-08-19T03:11:37.672Z,5.60
2022-08-19T03:14:07.310Z,5.83
2022-08-19T03:16:41.939Z,6.03
2022-08-19T03:19:09.587Z,6.07
2022-08-19T03:21:37.291Z,5.78
2022-08-19T03:24:08.618Z,6.18
2022-08-19T03:26:36.421Z,5.40
2022-08-19T03:29:05.830Z,5.53
2022-08-19T03:31:43.871Z,5.50
2022-08-19T03:34:22.751Z,5.37
2022-08-19T03:36:50.631Z,5.35
2022-08-19T03:39:18.787Z,5.05
2022-08-19T03:41:48.778Z,5.50
2022-08-19T03:44:21.490Z,5.28
2022-08-19T03:46:50.673Z,5.60
2022-08-19T03:49:18.886Z,5.75
2022-08-19T03:51:50.483Z,4.95
2022-08-19T03:54:20.423Z,5.53
2022-08-19T03:56:50.521Z,5.68
2022-08-19T03:59:20.833Z,5.65
2022-08-19T04:01:48.374Z,6.00
2022-08-19T04:04:15.920Z,5.37
2022-08-19T04:06:44.933Z,5.60
2022-08-19T04:09:13.795Z,5.30
2022-08-19T04:11:44.953Z,5.63
2022-08-19T04:14:15.147Z,5.40
2022-08-19T04:16:44.696Z,5.55
2022-08-19T04:19:13.177Z,5.83
2022-08-19T04:21:41.138Z,5.55
2022-08-19T04:24:08.976Z,5.43
2022-08-19T04:26:40.060Z,5.60
2022-08-19T04:29:12.870Z,5.60
2022-08-19T04:31:41.942Z,5.57
2022-08-19T04:34:12.285Z,5.60
2022-08-19T04:36:42.191Z,5.47
2022-08-19T04:39:12.711Z,4.95
2022-08-19T04:41:58.952Z,5.35
2022-08-19T04:44:27.332Z,5.47
2022-08-19T04:46:55.190Z,5.50
2022-08-19T04:49:24.046Z,4.95
2022-08-19T04:51:55.247Z,5.10
2022-08-19T04:54:37.310Z,5.13
2022-08-19T04:57:10.588Z,5.00
2022-08-19T04:59:39.463Z,5.18
2022-08-19T05:02:09.356Z,4.93
2022-08-19T05:04:40.056Z,5.10
2022-08-19T05:07:08.689Z,5.20
2022-08-19T05:09:57.012Z,4.90
2022-08-19T05:12:29.243Z,4.93
2022-08-19T05:14:58.516Z,4.83
2022-08-19T05:17:28.800Z,5.35
2022-08-19T05:20:15.187Z,4.87
2022-08-19T05:22:43.685Z,4.78
2022-08-19T05:25:14.677Z,5.38
2022-08-19T05:27:44.227Z,4.65
2022-08-19T05:30:13.405Z,4.80
2022-08-19T05:32:41.721Z,4.93
2022-08-19T05:35:11.461Z,4.57
2022-08-19T05:37:41.220Z,4.55
2022-08-19T05:40:11.048Z,4.50
2022-08-19T05:42:38.779Z,4.68
2022-08-19T05:45:09.223Z,4.85
2022-08-19T05:47:42.031Z,4.90
2022-08-19T05:50:10.467Z,5.10
2022-08-19T05:52:50.115Z,5.18
2022-08-19T05:55:21.131Z,5.15
2022-08-19T05:57:48.863Z,5.00
2022-08-19T06:00:21.466Z,4.80
2022-08-19T06:02:53.133Z,5.13
2022-08-19T06:05:21.102Z,4.93
2022-08-19T06:07:48.713Z,4.68
2022-08-19T06:10:16.338Z,4.70
2022-08-19T06:12:43.874Z,4.50
2022-08-19T06:15:14.795Z,4.85
2022-08-19T06:17:45.198Z,4.07
2022-08-19T06:20:14.954Z,4.03
2022-08-19T06:22:44.902Z,4.25
2022-08-19T06:25:13.231Z,4.38
2022-08-19T06:27:53.388Z,4.72
2022-08-19T06:30:28.831Z,4.00
2022-08-19T06:32:57.782Z,3.60
2022-08-19T06:35:26.260Z,3.70
2022-08-19T06:37:54.644Z,3.70
2022-08-19T06:40:22.485Z,3.53
2022-08-19T06:42:54.531Z,3.20
2022-08-19T06:45:24.676Z,3.22
2022-08-19T06:47:56.748Z,3.10
2022-08-19T06:50:26.136Z,3.35
2022-08-19T06:52:53.752Z,3.00
2022-08-19T06:55:21.558Z,2.70
2022-08-19T06:57:49.275Z,2.88
2022-08-19T07:00:17.317Z,2.78
2022-08-19T07:02:49.800Z,2.83
2022-08-19T07:05:26.811Z,2.60
2022-08-19T07:07:54.334Z,2.60
2022-08-19T07:10:26.121Z,2.67
2022-08-19T07:12:54.826Z,2.83
2022-08-19T07:15:22.559Z,2.42
2022-08-19T07:17:52.711Z,2.92
2022-08-19T07:20:21.243Z,4.95
2022-08-19T07:22:50.279Z,3.10
2022-08-19T07:25:18.793Z,2.72
2022-08-19T07:27:46.580Z,2.42
2022-08-19T07:30:23.240Z,2.45
2022-08-19T07:32:54.013Z,2.38
2022-08-19T07:35:21.699Z,2.70
2022-08-19T07:37:50.535Z,2.47
2022-08-19T07:40:18.089Z,2.50
2022-08-19T07:42:45.632Z,2.42
2022-08-19T07:45:13.371Z,2.67
2022-08-19T07:47:48.037Z,2.55
2022-08-19T07:50:20.765Z,2.30
2022-08-19T07:52:51.371Z,2.40
2022-08-19T07:55:41.840Z,2.50
2022-08-19T07:58:12.475Z,2.50
2022-08-19T08:00:40.068Z,2.40
2022-08-19T08:03:09.443Z,2.47
2022-08-19T08:05:54.680Z,2.70
2022-08-19T08:08:37.690Z,2.60
2022-08-19T08:11:15.381Z,2.67
2022-08-19T08:13:43.561Z,2.53
2022-08-19T08:16:14.172Z,2.42
2022-08-19T08:18:50.196Z,2.65
2022-08-19T08:21:18.487Z,3.28
2022-08-19T08:23:47.448Z,3.15
2022-08-19T08:26:16.062Z,3.22
2022-08-19T08:28:47.883Z,2.63
2022-08-19T08:31:16.949Z,2.60
2022-08-19T08:33:44.491Z,2.67
2022-08-19T08:36:14.592Z,2.80
2022-08-19T08:38:43.172Z,2.78
2022-08-19T08:41:21.865Z,3.10
2022-08-19T08:43:53.117Z,3.15
2022-08-19T08:46:31.793Z,3.20
2022-08-19T08:49:06.589Z,2.80
2022-08-19T08:51:37.308Z,3.15
2022-08-19T08:54:09.930Z,3.20
2022-08-19T08:56:41.531Z,3.08
2022-08-19T08:59:14.795Z,3.88
2022-08-19T09:01:42.354Z,3.03
2022-08-19T09:04:10.244Z,2.75
2022-08-19T09:06:46.057Z,2.75
2022-08-19T09:09:19.340Z,2.95
2022-08-19T09:11:58.651Z,2.75
2022-08-19T09:14:52.539Z,3.00
2022-08-19T09:17:31.557Z,2.92
2022-08-19T09:20:09.281Z,3.10
2022-08-19T09:22:38.276Z,3.47
2022-08-19T09:25:07.844Z,2.92
2022-08-19T09:27:42.723Z,2.85
2022-08-19T09:30:14.500Z,2.80
2022-08-19T09:32:44.253Z,2.83
2022-08-19T09:35:12.439Z,2.47
2022-08-19T09:37:40.549Z,2.60
2022-08-19T09:40:09.545Z,2.55
2022-08-19T09:42:50.187Z,2.50
2022-08-19T09:45:21.771Z,2.40
2022-08-19T09:47:49.872Z,2.50
2022-08-19T09:50:18.997Z,2.20
2022-08-19T09:52:54.213Z,2.30
2022-08-19T09:55:25.083Z,2.13
2022-08-19T09:58:01.916Z,2.30
2022-08-19T10:00:31.623Z,2.15
2022-08-19T10:02:59.270Z,2.30
2022-08-19T10:05:44.596Z,2.25
2022-08-19T10:08:16.460Z,2.22
2022-08-19T10:10:46.676Z,2.17
2022-08-19T10:13:18.268Z,2.22
2022-08-19T10:15:48.085Z,2.30
2022-08-19T10:18:19.198Z,2.15
2022-08-19T10:20:51.772Z,2.30
2022-08-19T10:23:21.596Z,2.30
2022-08-19T10:25:49.815Z,2.00
2022-08-19T10:28:19.536Z,2.30
2022-08-19T10:30:47.787Z,2.42
2022-08-19T10:33:16.017Z,2.40
2022-08-19T10:36:05.472Z,2.30
2022-08-19T10:38:33.192Z,2.22
2022-08-19T10:41:08.875Z,2.38
2022-08-19T10:43:39.152Z,2.40
2022-08-19T10:46:13.920Z,2.22
2022-08-19T10:48:42.045Z,2.25
2022-08-19T10:51:28.613Z,2.17
2022-08-19T10:53:57.243Z,2.45
2022-08-19T10:56:54.303Z,2.40
2022-08-19T10:59:31.464Z,2.47
2022-08-19T11:02:03.753Z,1.95
2022-08-19T11:04:32.832Z,2.30
2022-08-19T11:07:00.482Z,2.40
2022-08-19T11:09:33.919Z,2.20
2022-08-19T11:12:04.914Z,2.33
2022-08-19T11:14:35.167Z,2.60
2022-08-19T11:17:04.284Z,2.50
2022-08-19T11:19:32.096Z,2.35
2022-08-19T11:22:03.825Z,2.20
2022-08-19T11:24:32.749Z,2.42
2022-08-19T11:27:05.603Z,2.67
2022-08-19T11:29:35.343Z,2.75
2022-08-19T11:32:06.380Z,3.28
2022-08-19T11:34:33.911Z,3.00
2022-08-19T11:37:01.806Z,2.90
2022-08-19T11:39:31.776Z,2.97
2022-08-19T11:42:00.823Z,3.13
2022-08-19T11:44:28.660Z,3.63
2022-08-19T11:46:58.587Z,4.15
2022-08-19T11:49:37.159Z,4.05
2022-08-19T11:52:05.192Z,3.70
2022-08-19T11:54:33.044Z,3.75
2022-08-19T11:57:02.059Z,3.83
2022-08-19T11:59:30.175Z,3.47
2022-08-19T12:02:00.193Z,3.35
2022-08-19T12:04:27.734Z,3.40
2022-08-19T12:06:55.707Z,3.33
2022-08-19T12:09:23.298Z,3.17
2022-08-19T12:11:51.789Z,3.30
2022-08-19T12:14:19.523Z,3.40
2022-08-19T12:16:50.984Z,3.42
2022-08-19T12:19:21.857Z,3.33
2022-08-19T12:21:51.193Z,3.53
2022-08-19T12:24:23.820Z,3.28
2022-08-19T12:26:52.741Z,3.10
2022-08-19T12:29:23.718Z,3.42
2022-08-19T12:31:51.938Z,3.35
2022-08-19T12:34:21.603Z,3.30
2022-08-19T12:36:50.381Z,3.28
2022-08-19T12:39:18.184Z,3.70
2022-08-19T12:41:51.382Z,3.65
2022-08-19T12:44:29.021Z,3.33
2022-08-19T12:46:57.537Z,3.25
2022-08-19T12:49:53.954Z,3.25
2022-08-19T12:52:16.633Z,3.20
2022-08-19T12:54:53.683Z,3.30
2022-08-19T12:57:29.870Z,3.38
2022-08-19T13:00:03.020Z,3.63
2022-08-19T13:02:33.082Z,3.70
2022-08-19T13:05:11.895Z,3.40
2022-08-19T13:07:41.396Z,3.33
2022-08-19T13:10:12.677Z,3.47
2022-08-19T13:12:41.962Z,3.80
2022-08-19T13:15:11.367Z,3.83
2022-08-19T13:17:40.163Z,3.38
2022-08-19T13:20:11.831Z,3.40
2022-08-19T13:22:40.063Z,4.00
2022-08-19T13:25:09.503Z,3.75
2022-08-19T13:27:37.475Z,3.35
2022-08-19T13:30:25.607Z,3.33
2022-08-19T13:33:16.468Z,3.47
2022-08-19T13:35:49.273Z,3.53
2022-08-19T13:38:19.039Z,3.20
2022-08-19T13:40:47.337Z,3.70
2022-08-19T13:43:23.080Z,3.83
2022-08-19T13:45:53.712Z,3.72
2022-08-19T13:48:21.381Z,3.60
2022-08-19T13:50:50.307Z,3.58
2022-08-19T13:53:18.654Z,3.72
2022-08-19T13:55:46.635Z,4.15
2022-08-19T13:58:15.373Z,4.20
2022-08-19T14:00:45.351Z,3.92
2022-08-19T14:03:13.305Z,3.78
2022-08-19T14:05:40.865Z,3.92
2022-08-19T14:08:10.191Z,3.35
2022-08-19T14:10:37.757Z,3.50
2022-08-19T14:13:05.995Z,4.07
2022-08-19T14:15:34.476Z,3.60
2022-08-19T14:18:02.004Z,3.10
2022-08-19T14:20:29.550Z,2.67
2022-08-19T14:22:57.361Z,2.42
2022-08-19T14:25:28.346Z,2.83
2022-08-19T14:27:57.542Z,2.60
2022-08-19T14:30:27.717Z,2.60
2022-08-19T14:32:56.043Z,2.40
2022-08-19T14:35:24.702Z,2.38
2022-08-19T14:37:56.166Z,2.15
2022-08-19T14:40:28.706Z,2.35
2022-08-19T14:43:00.130Z,2.40
2022-08-19T14:45:28.809Z,2.45
2022-08-19T14:47:56.565Z,2.25
2022-08-19T14:50:24.692Z,2.75
2022-08-19T14:52:59.023Z,3.25
2022-08-19T14:55:27.952Z,3.33
2022-08-19T14:57:55.561Z,3.30
2022-08-19T15:00:26.070Z,3.38
2022-08-19T15:02:55.424Z,3.40
2022-08-19T15:05:23.456Z,3.40
2022-08-19T15:07:51.057Z,3.70
2022-08-19T15:10:18.680Z,3.22
2022-08-19T15:12:51.599Z,3.38
2022-08-19T15:15:20.442Z,3.53
2022-08-19T15:17:48.322Z,3.60
2022-08-19T15:20:18.767Z,3.40
2022-08-19T15:22:46.962Z,3.40
2022-08-19T15:25:17.107Z,2.88
2022-08-19T15:27:44.624Z,2.85
2022-08-19T15:30:19.670Z,2.97
2022-08-19T15:32:49.084Z,2.80
2022-08-19T15:35:18.183Z,2.85
2022-08-19T15:37:45.999Z,2.80
2022-08-19T15:40:13.941Z,2.67
2022-08-19T15:42:43.506Z,2.58
2022-08-19T15:45:13.812Z,2.50
2022-08-19T15:47:41.949Z,2.25
2022-08-19T15:50:11.241Z,2.50
2022-08-19T15:52:49.841Z,2.20
2022-08-19T15:55:32.541Z,2.30
2022-08-19T15:58:24.135Z,2.50
2022-08-19T16:01:17.764Z,2.78
2022-08-19T16:04:05.954Z,2.50
2022-08-19T16:06:43.863Z,2.20
2022-08-19T16:09:11.417Z,2.40
2022-08-19T16:11:39.652Z,2.45
2022-08-19T16:14:09.196Z,2.33
2022-08-19T16:16:39.366Z,2.40
2022-08-19T16:19:10.203Z,2.50
2022-08-19T16:21:39.681Z,2.60
2022-08-19T16:24:11.911Z,2.30
2022-08-19T16:26:40.179Z,2.53
2022-08-19T16:29:12.840Z,2.30
2022-08-19T16:31:43.336Z,2.45
2022-08-19T16:34:11.951Z,2.50
2022-08-19T16:36:42.114Z,2.50
2022-08-19T16:39:11.226Z,2.35
2022-08-19T16:41:39.503Z,2.33
2022-08-19T16:44:08.059Z,2.38
2022-08-19T16:46:37.193Z,2.50
2022-08-19T16:49:06.799Z,2.50
2022-08-19T16:51:34.599Z,2.65
2022-08-19T16:54:03.399Z,2.58
2022-08-19T16:56:31.103Z,2.80
2022-08-19T16:58:59.680Z,2.50
2022-08-19T17:01:28.120Z,2.60
2022-08-19T17:03:56.461Z,2.80
2022-08-19T17:06:26.918Z,2.40
2022-08-19T17:08:59.565Z,2.67
2022-08-19T17:11:28.835Z,2.85
2022-08-19T17:13:58.956Z,2.80
2022-08-19T17:16:29.419Z,2.88
2022-08-19T17:18:59.045Z,2.90
2022-08-19T17:21:31.841Z,2.90
2022-08-19T17:24:00.846Z,2.92
2022-08-19T17:26:30.155Z,2.90
2022-08-19T17:28:59.442Z,2.95
2022-08-19T17:31:29.936Z,2.72
2022-08-19T17:33:58.868Z,2.72
2022-08-19T17:36:30.932Z,2.72
2022-08-19T17:39:00.679Z,2.60
2022-08-19T17:41:30.404Z,2.92
2022-08-19T17:43:58.584Z,2.85
2022-08-19T17:46:26.316Z,3.47
2022-08-19T17:48:56.885Z,3.13
2022-08-19T17:51:27.247Z,2.70
2022-08-19T17:53:56.171Z,2.70
2022-08-19T17:56:24.741Z,2.72
2022-08-19T17:58:59.925Z,2.60
2022-08-19T18:01:30.753Z,2.97
2022-08-19T18:04:18.842Z,3.30
2022-08-19T18:06:53.004Z,3.00
2022-08-19T18:09:24.918Z,3.00
2022-08-19T18:11:54.164Z,2.92
2022-08-19T18:14:28.065Z,3.28
2022-08-19T18:17:00.226Z,3.83
2022-08-19T18:19:40.663Z,3.80
2022-08-19T18:22:10.867Z,3.53
2022-08-19T18:24:41.478Z,3.53
2022-08-19T18:27:09.946Z,3.38
2022-08-19T18:29:38.571Z,3.20
2022-08-19T18:32:06.864Z,3.40
2022-08-19T18:34:37.046Z,3.60
2022-08-19T18:37:04.655Z,3.25
2022-08-19T18:39:50.112Z,3.30
2022-08-19T18:42:37.001Z,3.10
2022-08-19T18:45:22.454Z,3.28
2022-08-19T18:48:07.984Z,3.33
2022-08-19T18:50:53.913Z,3.30
2022-08-19T18:53:21.430Z,3.40
2022-08-19T18:55:55.395Z,3.10
2022-08-19T18:58:28.185Z,3.17
2022-08-19T19:00:57.174Z,3.30
2022-08-19T19:03:26.070Z,3.28
2022-08-19T19:05:53.886Z,3.22
2022-08-19T19:08:27.348Z,4.05
2022-08-19T19:10:55.631Z,3.30
2022-08-19T19:13:24.642Z,3.45
2022-08-19T19:15:52.198Z,3.67
2022-08-19T19:18:19.759Z,3.50
2022-08-19T19:20:47.303Z,3.42
2022-08-19T19:23:14.828Z,3.60
2022-08-19T19:25:50.187Z,3.38
2022-08-19T19:28:20.691Z,3.35
2022-08-19T19:30:49.677Z,3.33
2022-08-19T19:33:17.199Z,3.60
2022-08-19T19:35:47.301Z,3.55
2022-08-19T19:38:15.258Z,3.50
2022-08-19T19:40:42.887Z,3.70
2022-08-19T19:43:10.731Z,3.80
2022-08-19T19:45:38.911Z,3.40
2022-08-19T19:48:08.320Z,3.35
2022-08-19T19:50:35.851Z,3.65
2022-08-19T19:53:03.368Z,3.88
2022-08-19T19:55:30.994Z,4.03
2022-08-19T19:57:58.567Z,4.18
2022-08-19T20:00:26.768Z,3.35
2022-08-19T20:02:55.195Z,3.83
2022-08-19T20:05:24.959Z,3.90
2022-08-19T20:08:12.691Z,3.92
2022-08-19T20:10:42.212Z,3.83
2022-08-19T20:13:11.465Z,3.80
2022-08-19T20:15:42.592Z,3.88
2022-08-19T20:18:11.644Z,3.72
2022-08-19T20:20:41.002Z,4.03
2022-08-19T20:23:08.918Z,3.97
2022-08-19T20:25:38.495Z,4.03
2022-08-19T20:28:07.098Z,3.83
2022-08-19T20:30:34.791Z,4.20
2022-08-19T20:33:06.743Z,3.80
2022-08-19T20:35:36.398Z,3.67
2022-08-19T20:38:08.718Z,3.75
2022-08-19T20:40:37.797Z,3.67
2022-08-19T20:43:09.870Z,3.95
2022-08-19T20:45:37.596Z,3.60
2022-08-19T20:48:06.935Z,3.70
2022-08-19T20:50:36.115Z,3.40
2022-08-19T20:53:12.451Z,3.53
2022-08-19T20:55:40.134Z,3.50
2022-08-19T20:58:07.722Z,3.80
2022-08-19T21:00:35.341Z,3.75
2022-08-19T21:03:02.906Z,3.75
2022-08-19T21:05:30.881Z,3.45
2022-08-19T21:07:58.758Z,3.97
2022-08-19T21:10:27.770Z,3.72
2022-08-19T21:12:55.444Z,3.38
2022-08-19T21:15:24.546Z,3.42
2022-08-19T21:17:52.367Z,3.53
2022-08-19T21:20:19.969Z,3.00
2022-08-19T21:22:47.510Z,3.30
2022-08-19T21:25:16.380Z,3.38
2022-08-19T21:27:45.312Z,3.28
2022-08-19T21:30:14.216Z,3.00
2022-08-19T21:32:41.740Z,3.17
2022-08-19T21:35:09.515Z,3.35
2022-08-19T21:37:38.688Z,3.38
2022-08-19T21:40:08.500Z,3.40
2022-08-19T21:42:36.203Z,3.20
2022-08-19T21:45:05.792Z,2.97
2022-08-19T21:47:33.369Z,3.20
2022-08-19T21:50:00.948Z,3.05
2022-08-19T21:52:28.728Z,2.88
2022-08-19T21:54:57.140Z,3.17
2022-08-19T21:57:25.196Z,3.20
2022-08-19T21:59:52.990Z,3.30
2022-08-19T22:02:22.428Z,3.08
2022-08-19T22:04:51.377Z,3.08
2022-08-19T22:07:20.864Z,3.05
2022-08-19T22:09:50.008Z,3.30
2022-08-19T22:12:23.328Z,3.10
2022-08-19T22:14:51.603Z,2.92
2022-08-19T22:17:19.758Z,2.83
2022-08-19T22:19:49.185Z,2.95
2022-08-19T22:22:21.272Z,2.88
2022-08-19T22:24:48.795Z,3.00
2022-08-19T22:27:16.462Z,3.10
2022-08-19T22:29:44.041Z,2.95
2022-08-19T22:32:28.091Z,2.88
2022-08-19T22:35:00.612Z,3.25
2022-08-19T22:37:31.719Z,2.85
2022-08-19T22:40:00.470Z,3.05
2022-08-19T22:42:31.923Z,3.00
2022-08-19T22:45:01.251Z,2.75
2022-08-19T22:47:30.194Z,2.72
2022-08-19T22:50:06.138Z,2.97
2022-08-19T22:52:33.077Z,2.63
2022-08-19T22:55:03.150Z,2.80
2022-08-19T22:57:30.701Z,2.92
2022-08-19T22:59:58.865Z,2.85
2022-08-19T23:02:34.509Z,2.75
2022-08-19T23:05:04.325Z,2.63
2022-08-19T23:07:32.383Z,2.50
2022-08-19T23:10:00.394Z,2.75
2022-08-19T23:12:30.512Z,2.88
2022-08-19T23:15:02.976Z,2.72
2022-08-19T23:17:30.563Z,2.92
2022-08-19T23:19:58.081Z,2.47
2022-08-19T23:22:26.989Z,2.67
2022-08-19T23:24:56.190Z,2.60
2022-08-19T23:27:41.319Z,2.60
2022-08-19T23:30:28.870Z,2.50
2022-08-19T23:32:58.512Z,2.35
2022-08-19T23:35:28.289Z,2.47
2022-08-19T23:37:57.429Z,2.50
2022-08-19T23:40:25.149Z,2.78
2022-08-19T23:42:52.701Z,2.53
2022-08-19T23:45:23.902Z,2.40
2022-08-19T23:47:53.391Z,2.40
2022-08-19T23:50:21.547Z,2.50
2022-08-19T23:52:52.866Z,2.65
2022-08-19T23:55:24.435Z,2.47
2022-08-19T23:57:52.118Z,2.40
